Time;durP1;ratioP1;P1;durP2;ratioP2;P2;SDS_P1;SDS_P2;PMS_P1;PMS_P2;Temp;Humidity;BMP_temperature;BMP_pressure;BME280_temperature;BME280_humidity;BME280_pressure;Samples;Min_cycle;Max_cycle;Signal;HPM_P1;HPM_P2
2022/07/21 00:02:08;;;;;;;;;3.75;3.75;;;;;23.64;100.00;101689.66;5140809;27;45309;-78
2022/07/21 00:04:34;;;;;;;;;5.00;3.75;;;;;23.63;100.00;101682.59;5140609;27;45218;-79
2022/07/21 00:06:59;;;;;;;;;3.75;3.50;;;;;23.62;100.00;101680.81;5141039;27;45467;-78
2022/07/21 00:09:25;;;;;;;;;4.00;2.25;;;;;23.61;100.00;101671.13;5139932;27;45554;-77
2022/07/21 00:11:51;;;;;;;;;4.00;4.00;;;;;23.60;100.00;101674.66;5119732;27;45357;-78
2022/07/21 00:14:16;;;;;;;;;2.25;2.25;;;;;23.58;100.00;101668.50;5119971;27;45380;-78
2022/07/21 00:16:42;;;;;;;;;3.75;3.75;;;;;23.58;100.00;101671.13;5119918;27;45198;-78
2022/07/21 00:19:09;;;;;;;;;3.00;3.00;;;;;23.59;100.00;101672.91;5119502;27;46059;-77
2022/07/21 00:21:36;;;;;;;;;4.00;4.00;;;;;23.60;100.00;101675.53;5127272;27;45330;-78
2022/07/21 00:24:01;;;;;;;;;5.00;4.00;;;;;23.59;100.00;101672.91;5140662;27;45846;-78
2022/07/21 00:26:27;;;;;;;;;4.75;4.25;;;;;23.60;100.00;101680.84;5140084;27;45927;-77
2022/07/21 00:28:52;;;;;;;;;2.75;2.75;;;;;23.57;100.00;101682.59;5121898;27;46439;-78
2022/07/21 00:31:18;;;;;;;;;6.50;5.25;;;;;23.51;100.00;101662.28;5121047;27;45509;-78
2022/07/21 00:33:44;;;;;;;;;5.00;3.50;;;;;23.48;100.00;101671.09;5119229;27;45405;-77
2022/07/21 00:36:09;;;;;;;;;5.50;3.25;;;;;23.41;100.00;101673.69;5119801;27;45317;-78
2022/07/21 00:38:35;;;;;;;;;4.00;4.00;;;;;23.41;100.00;101679.84;5100413;27;47724;-77
2022/07/21 00:41:01;;;;;;;;;4.50;3.00;;;;;23.39;100.00;101672.78;5119318;27;45330;-77
2022/07/21 00:43:26;;;;;;;;;3.50;3.50;;;;;23.36;100.00;101676.31;5101168;27;45377;-78
2022/07/21 00:45:53;;;;;;;;;4.25;4.25;;;;;23.34;100.00;101672.78;5120089;27;45546;-77
2022/07/21 00:48:19;;;;;;;;;6.75;5.00;;;;;23.32;100.00;101666.59;5119305;27;45456;-77
2022/07/21 00:50:45;;;;;;;;;5.25;4.00;;;;;23.29;100.00;101675.41;5119609;27;45326;-77
2022/07/21 00:53:10;;;;;;;;;4.00;4.00;;;;;23.27;100.00;101674.50;5119311;27;45317;-78
2022/07/21 00:55:36;;;;;;;;;4.00;3.25;;;;;23.27;100.00;101674.50;5119336;27;45657;-79
2022/07/21 00:58:02;;;;;;;;;3.00;3.00;;;;;23.24;100.00;101665.66;5119134;27;45611;-79
2022/07/21 01:00:29;;;;;;;;;3.50;2.75;;;;;23.23;100.00;101670.06;5118851;27;45428;-79
2022/07/21 01:02:56;;;;;;;;;3.00;3.00;;;;;23.22;100.00;101668.28;5119633;27;45242;-78
2022/07/21 01:05:22;;;;;;;;;3.00;3.00;;;;;23.22;100.00;101670.06;5119779;27;45594;-79
2022/07/21 01:07:51;;;;;;;;;4.75;3.00;;;;;23.21;100.00;101671.81;5118199;27;46095;-78
2022/07/21 01:10:19;;;;;;;;;4.00;4.00;;;;;23.21;100.00;101670.94;5100609;27;45955;-78
2022/07/21 01:12:45;;;;;;;;;2.00;2.00;;;;;23.19;100.00;101673.56;5118779;27;45377;-78
2022/07/21 01:15:13;;;;;;;;;4.25;4.00;;;;;23.15;100.00;101672.63;5100507;27;45325;-78
2022/07/21 01:17:41;;;;;;;;;5.00;2.75;;;;;23.16;100.00;101676.16;5118788;27;46066;-78
2022/07/21 01:20:11;;;;;;;;;4.25;4.25;;;;;23.16;100.00;101670.88;5118752;27;45341;-79
2022/07/21 01:22:40;;;;;;;;;4.00;3.50;;;;;23.16;100.00;101673.50;5119346;27;45329;-79
2022/07/21 01:25:07;;;;;;;;;3.25;3.25;;;;;23.13;100.00;101671.75;5119253;27;45352;-78
2022/07/21 01:27:33;;;;;;;;;3.25;3.25;;;;;23.10;100.00;101674.34;5118588;27;47519;-80
2022/07/21 01:29:59;;;;;;;;;3.00;3.00;;;;;23.09;100.00;101669.06;5118772;27;45275;-79
2022/07/21 01:32:25;;;;;;;;;4.00;4.00;;;;;23.07;100.00;101668.16;5119204;27;45326;-79
2022/07/21 01:34:51;;;;;;;;;4.00;4.00;;;;;23.02;100.00;101663.72;5118987;27;45227;-79
2022/07/21 01:37:22;;;;;;;;;4.25;3.25;;;;;23.00;100.00;101649.63;5118465;27;45278;-79
2022/07/21 01:42:36;;;;;;;;;4.50;4.00;;;;;22.95;100.00;101643.44;5118367;27;45259;-80
2022/07/21 01:45:04;;;;;;;;;4.00;3.00;;;;;22.95;100.00;101645.19;5118781;27;45224;-79
2022/07/21 01:47:30;;;;;;;;;5.00;5.00;;;;;22.94;100.00;101654.00;5100458;27;45757;-79
2022/07/21 01:49:56;;;;;;;;;5.00;4.00;;;;;22.92;100.00;101653.97;5100170;27;45355;-79
2022/07/21 01:52:21;;;;;;;;;4.00;4.00;;;;;22.87;100.00;101653.94;5118522;27;45890;-79
2022/07/21 01:54:47;;;;;;;;;7.00;3.75;;;;;22.82;100.00;101658.31;5118208;27;45629;-78
2022/07/21 01:57:13;;;;;;;;;3.50;3.50;;;;;22.80;100.00;101665.34;5099755;27;45448;-78
2022/07/21 01:59:38;;;;;;;;;3.00;3.00;;;;;22.80;100.00;101665.34;5118059;27;45332;-79
2022/07/21 02:02:04;;;;;;;;;3.00;3.00;;;;;22.78;100.00;101669.72;5118256;27;45185;-78
2022/07/21 02:04:29;;;;;;;;;3.50;3.50;;;;;22.75;100.00;101674.97;5118103;27;45467;-79
2022/07/21 02:06:55;;;;;;;;;3.00;3.00;;;;;22.73;100.00;101676.75;5124111;27;46291;-78
2022/07/21 02:09:21;;;;;;;;;6.00;6.00;;;;;22.73;100.00;101677.59;5138726;27;45219;-78
2022/07/21 02:11:46;;;;;;;;;4.25;4.25;;;;;22.71;100.00;101673.19;5138604;27;45328;-79
2022/07/21 02:14:12;;;;;;;;;5.00;5.00;;;;;22.67;100.00;101674.03;5120242;27;45566;-78
2022/07/21 02:16:37;;;;;;;;;6.25;5.75;;;;;22.64;100.00;101669.63;5138304;27;45360;-77
2022/07/21 02:19:03;;;;;;;;;5.00;4.00;;;;;22.61;100.00;101671.34;5118804;27;45564;-78
2022/07/21 02:21:29;;;;;;;;;5.25;5.25;;;;;22.59;100.00;101673.97;5138543;27;45480;-78
2022/07/21 02:23:55;;;;;;;;;4.50;4.50;;;;;22.57;100.00;101673.06;5139220;27;45487;-78
2022/07/21 02:26:21;;;;;;;;;4.75;4.75;;;;;22.55;100.00;101674.81;5138385;27;45490;-79
2022/07/21 02:28:46;;;;;;;;;8.00;6.75;;;;;22.51;100.00;101667.75;5138332;27;45960;-79
2022/07/21 02:31:12;;;;;;;;;6.00;5.00;;;;;22.51;100.00;101675.66;5138550;27;45419;-78
2022/07/21 02:33:38;;;;;;;;;6.00;6.00;;;;;22.49;100.00;101675.66;5138421;27;45310;-79
2022/07/21 02:36:03;;;;;;;;;6.00;6.00;;;;;22.46;100.00;101680.88;5138276;27;45908;-78
2022/07/21 02:38:29;;;;;;;;;6.50;6.00;;;;;22.46;100.00;101678.25;5137968;27;45486;-78
2022/07/21 02:40:55;;;;;;;;;8.00;6.50;;;;;22.51;100.00;101684.47;5138692;27;45275;-79
2022/07/21 02:43:20;;;;;;;;;6.00;6.00;;;;;22.51;100.00;101675.66;5138238;27;45283;-79
2022/07/21 02:45:46;;;;;;;;;5.75;5.50;;;;;22.54;100.00;101681.84;5119291;27;46853;-78
2022/07/21 02:48:13;;;;;;;;;7.00;6.25;;;;;22.48;100.00;101689.72;5138312;27;45177;-79
2022/07/21 02:50:42;;;;;;;;;7.50;6.75;;;;;22.48;100.00;101684.44;5119539;27;45494;-79
2022/07/21 02:53:13;;;;;;;;;7.50;6.00;;;;;22.48;100.00;101687.06;5138437;27;45475;-79
2022/07/21 02:55:40;;;;;;;;;6.75;6.25;;;;;22.51;100.00;101700.31;5137068;27;45349;-78
2022/07/21 02:58:11;;;;;;;;;6.75;5.25;;;;;22.52;100.00;101693.25;5138111;27;45759;-78
2022/07/21 03:00:40;;;;;;;;;10.75;7.00;;;;;22.52;100.00;101695.91;5138387;27;45204;-78
2022/07/21 03:03:07;;;;;;;;;5.75;5.75;;;;;22.48;100.00;101694.09;5119591;27;45372;-77
2022/07/21 03:05:33;;;;;;;;;8.00;8.00;;;;;22.44;100.00;101700.22;5137775;27;45403;-77
2022/07/21 03:07:58;;;;;;;;;6.75;6.75;;;;;22.39;100.00;101700.16;5137940;27;45344;-78
2022/07/21 03:10:24;;;;;;;;;9.00;8.75;;;;;22.36;100.00;101697.47;5138374;27;45184;-78
2022/07/21 03:12:50;;;;;;;;;7.75;7.00;;;;;22.36;100.00;101702.75;5119360;27;45196;-77
2022/07/21 03:15:15;;;;;;;;;10.50;8.50;;;;;22.36;100.00;101703.63;5137756;27;45975;-78
2022/07/21 03:17:41;;;;;;;;;8.50;8.50;;;;;22.35;100.00;101704.47;5118841;27;45279;-78
2022/07/21 03:20:07;;;;;;;;;7.75;7.00;;;;;22.33;100.00;101700.97;5137792;27;45302;-78
2022/07/21 03:22:33;;;;;;;;;9.50;9.00;;;;;22.29;100.00;101698.28;5137767;27;45596;-78
2022/07/21 03:24:58;;;;;;;;;10.25;10.25;;;;;22.26;100.00;101710.56;5137712;27;45906;-78
2022/07/21 03:27:24;;;;;;;;;8.75;8.75;;;;;22.22;100.00;101708.75;5137867;27;45467;-78
2022/07/21 03:29:49;;;;;;;;;11.00;8.75;;;;;22.22;100.00;101714.03;5137632;27;45266;-78
2022/07/21 03:32:15;;;;;;;;;10.00;10.00;;;;;22.21;100.00;101714.91;5141406;27;45534;-78
2022/07/21 03:34:40;;;;;;;;;9.50;9.50;;;;;22.20;100.00;101720.16;5140937;27;45796;-78
2022/07/21 03:37:06;;;;;;;;;10.25;9.50;;;;;22.17;100.00;101715.75;5141283;27;45377;-78
2022/07/21 03:39:31;;;;;;;;;12.25;10.75;;;;;22.18;100.00;101709.63;5122671;27;45953;-78
2022/07/21 03:41:57;;;;;;;;;11.00;9.75;;;;;22.17;100.00;101720.13;5141510;27;45431;-78
2022/07/21 03:44:24;;;;;;;;;9.00;9.00;;;;;22.15;100.00;101711.31;5134821;27;45498;-78
2022/07/21 03:46:49;;;;;;;;;16.50;12.25;;;;;22.15;100.00;101716.56;5119961;27;45271;-78
2022/07/21 03:49:15;;;;;;;;;12.75;10.00;;;;;22.11;100.00;101723.56;5139063;27;45369;-79
2022/07/21 03:51:40;;;;;;;;;8.00;7.50;;;;;22.07;100.00;101722.66;5141242;27;45525;-79
2022/07/21 03:54:06;;;;;;;;;11.00;11.00;;;;;22.10;100.00;101730.63;5140188;27;45753;-78
2022/07/21 03:56:31;;;;;;;;;10.75;10.75;;;;;22.11;100.00;101728.84;5140637;27;45244;-77
2022/07/21 03:58:57;;;;;;;;;13.75;11.50;;;;;22.11;100.00;101726.22;5141014;27;45372;-78
2022/07/21 04:01:22;;;;;;;;;8.25;8.00;;;;;22.09;100.00;101720.94;5141440;27;45510;-78
2022/07/21 04:03:48;;;;;;;;;13.00;10.75;;;;;22.08;100.00;101728.84;5140384;27;45465;-77
2022/07/21 04:06:14;;;;;;;;;10.50;10.50;;;;;22.06;100.00;101728.78;5140889;27;45486;-77
2022/07/21 04:08:39;;;;;;;;;10.25;10.25;;;;;22.03;100.00;101715.56;5140565;27;45363;-78
2022/07/21 04:11:05;;;;;;;;;13.50;11.75;;;;;22.03;100.00;101733.16;5122341;27;45526;-77
2022/07/21 04:13:31;;;;;;;;;13.00;12.50;;;;;22.01;100.00;101732.25;5140142;27;45841;-77
2022/07/21 04:15:57;;;;;;;;;12.00;11.25;;;;;22.02;100.00;101736.66;5140805;27;45778;-79
2022/07/21 04:18:22;;;;;;;;;15.25;12.50;;;;;22.03;100.00;101736.66;5140895;27;45563;-77
2022/07/21 04:20:48;;;;;;;;;13.50;13.00;;;;;22.05;100.00;101739.34;5140219;27;45607;-79
2022/07/21 04:23:13;;;;;;;;;16.00;15.00;;;;;22.04;100.00;101733.16;5140402;27;45342;-77
2022/07/21 04:25:39;;;;;;;;;12.50;11.50;;;;;22.06;100.00;101739.34;5140189;27;45416;-80
2022/07/21 04:28:07;;;;;;;;;16.75;15.25;;;;;22.07;100.00;101745.53;5140451;27;45301;-79
2022/07/21 04:30:33;;;;;;;;;17.50;15.50;;;;;22.03;100.00;101747.22;5123338;27;45469;-80
2022/07/21 04:32:58;;;;;;;;;13.00;12.50;;;;;22.00;100.00;101749.84;5119256;27;45982;-80
2022/07/21 04:35:24;;;;;;;;;15.25;14.75;;;;;22.03;100.00;101748.97;5119593;27;45402;-80
2022/07/21 04:37:50;;;;;;;;;18.75;16.50;;;;;22.02;100.00;101749.84;5119190;27;45333;-80
2022/07/21 04:40:16;;;;;;;;;16.75;15.75;;;;;22.00;100.00;101752.47;5100959;27;45515;-80
2022/07/21 04:42:43;;;;;;;;;15.50;14.00;;;;;22.02;100.00;101742.84;5118016;27;45468;-78
2022/07/21 04:45:11;;;;;;;;;16.50;15.25;;;;;22.02;100.00;101742.84;5119162;27;45325;-80
2022/07/21 04:47:46;;;;;;;;;17.25;14.75;;;;;21.98;100.00;101751.56;5119027;27;45331;-79
2022/07/21 04:50:12;;;;;;;;;19.00;17.25;;;;;21.95;100.00;101751.50;5119369;27;45196;-80
2022/07/21 04:52:38;;;;;;;;;13.25;12.75;;;;;21.92;100.00;101754.13;5118596;27;45429;-77
2022/07/21 04:55:04;;;;;;;;;20.75;16.75;;;;;21.92;100.00;101748.88;5118988;27;45241;-77
2022/07/21 04:57:29;;;;;;;;;16.25;15.50;;;;;21.91;100.00;101747.97;5118704;27;45318;-77
2022/07/21 04:59:55;;;;;;;;;17.50;16.75;;;;;21.93;100.00;101758.50;5101027;27;45330;-78
2022/07/21 05:02:21;;;;;;;;;18.50;16.00;;;;;21.92;100.00;101756.78;5118664;27;45310;-78
2022/07/21 05:04:46;;;;;;;;;18.75;16.75;;;;;21.89;100.00;101757.59;5118855;27;45443;-78
2022/07/21 05:07:12;;;;;;;;;16.75;14.75;;;;;21.93;100.00;101758.50;5118827;27;45345;-77
2022/07/21 05:09:37;;;;;;;;;22.00;18.00;;;;;21.93;100.00;101764.69;5118623;27;45446;-77
2022/07/21 05:12:03;;;;;;;;;20.25;19.25;;;;;21.93;100.00;101762.06;5118656;27;46260;-77
2022/07/21 05:14:29;;;;;;;;;17.75;16.00;;;;;21.97;100.00;101762.09;5099758;27;45224;-77
2022/07/21 05:16:54;;;;;;;;;17.50;16.50;;;;;21.99;100.00;101762.97;5100436;27;45265;-78
2022/07/21 05:19:20;;;;;;;;;15.50;15.50;;;;;22.03;100.00;101760.41;5100198;27;45295;-79
2022/07/21 05:21:46;;;;;;;;;14.25;14.25;;;;;22.06;100.00;101768.34;5118338;27;46040;-78
2022/07/21 05:24:12;;;;;;;;;16.75;16.75;;;;;22.06;100.00;101773.63;5118583;27;45310;-78
2022/07/21 05:26:38;;;;;;;;;18.00;17.25;;;;;22.04;100.00;101769.22;5118490;27;45365;-77
2022/07/21 05:29:03;;;;;;;;;16.00;14.75;;;;;22.02;100.00;101768.31;5135866;27;45426;-79
2022/07/21 05:31:29;;;;;;;;;17.00;15.25;;;;;22.01;100.00;101767.44;5123557;27;45438;-78
2022/07/21 05:33:55;;;;;;;;;16.00;16.00;;;;;22.02;100.00;101771.84;5118709;27;45819;-78
2022/07/21 05:36:21;;;;;;;;;16.75;15.25;;;;;22.01;100.00;101763.88;5118559;27;45439;-78
2022/07/21 05:38:47;;;;;;;;;19.25;18.25;;;;;21.99;100.00;101765.63;5118230;27;45692;-78
2022/07/21 05:41:13;;;;;;;;;23.25;18.25;;;;;22.00;100.00;101768.28;5099643;27;47777;-78
2022/07/21 05:43:39;;;;;;;;;19.00;16.00;;;;;21.99;100.00;101769.16;5117940;27;45507;-78
2022/07/21 05:46:05;;;;;;;;;18.50;18.50;;;;;21.97;100.00;101786.69;5120891;27;45341;-78
2022/07/21 05:48:30;;;;;;;;;22.00;19.50;;;;;21.94;100.00;101779.66;5118424;27;45568;-78
2022/07/21 05:50:56;;;;;;;;;21.75;17.50;;;;;21.97;100.00;101778.78;5118471;27;45441;-78
2022/07/21 05:53:22;;;;;;;;;19.00;17.75;;;;;22.00;100.00;101784.13;5126171;27;45344;-78
2022/07/21 05:55:48;;;;;;;;;19.25;18.00;;;;;22.04;100.00;101788.53;5128701;27;45230;-78
2022/07/21 05:58:14;;;;;;;;;24.50;22.00;;;;;22.07;100.00;101780.69;5127884;27;45246;-78
2022/07/21 06:00:39;;;;;;;;;21.25;16.50;;;;;22.09;100.00;101794.78;5137496;27;45354;-79
2022/07/21 06:03:05;;;;;;;;;19.00;18.25;;;;;22.11;100.00;101795.69;5113939;27;45514;-78
2022/07/21 06:05:30;;;;;;;;;20.00;18.00;;;;;22.13;100.00;101795.69;5137879;27;45309;-78
2022/07/21 06:07:56;;;;;;;;;18.75;15.00;;;;;22.11;100.00;101787.78;5139286;27;45417;-79
2022/07/21 06:10:22;;;;;;;;;21.00;19.50;;;;;22.10;100.00;101783.38;5138731;27;46207;-79
2022/07/21 06:12:47;;;;;;;;;20.00;18.00;;;;;22.14;100.00;101793.97;5138087;27;45427;-78
2022/07/21 06:15:14;;;;;;;;;18.75;15.50;;;;;22.11;100.00;101793.06;5138734;27;45407;-79
2022/07/21 06:17:41;;;;;;;;;19.25;16.25;;;;;22.15;100.00;101793.06;5129078;27;46584;-80
2022/07/21 06:20:08;;;;;;;;;24.00;20.00;;;;;22.19;100.00;101795.75;5118872;27;46125;-78
2022/07/21 06:22:35;;;;;;;;;16.75;15.50;;;;;22.20;100.00;101786.97;5117737;27;45237;-76
2022/07/21 06:25:03;;;;;;;;;21.50;16.00;;;;;22.24;100.00;101786.16;5122475;27;45406;-79
2022/07/21 06:27:29;;;;;;;;;19.50;17.25;;;;;22.25;100.00;101782.66;5117264;27;45453;-78
2022/07/21 06:29:56;;;;;;;;;20.00;16.75;;;;;22.27;100.00;101798.50;5117522;27;45302;-79
2022/07/21 06:32:23;;;;;;;;;19.75;19.25;;;;;22.22;100.00;101802.84;5134703;27;45775;-78
2022/07/21 06:34:48;;;;;;;;;18.50;14.75;;;;;22.23;100.00;101802.84;5138340;27;45333;-84
2022/07/21 06:37:14;;;;;;;;;16.25;14.50;;;;;22.28;100.00;101808.19;5138787;27;45204;-80
2022/07/21 06:39:41;;;;;;;;;21.25;19.00;;;;;22.35;100.00;101796.81;5116515;27;46189;-79
2022/07/21 06:42:07;;;;;;;;;19.00;16.75;;;;;22.35;100.00;101795.97;5121032;27;45450;-81
2022/07/21 06:44:33;;;;;;;;;18.25;18.00;;;;;22.38;100.00;101801.28;5118457;27;45350;-80
2022/07/21 06:47:04;;;;;;;;;19.00;15.75;;;;;22.41;100.00;101809.25;5118627;27;45418;-80
2022/07/21 06:49:31;;;;;;;;;19.75;17.50;;;;;22.43;100.00;101799.59;5120938;27;45661;-77
2022/07/21 06:51:57;;;;;;;;;18.50;15.75;;;;;22.44;100.00;101806.66;5118276;27;45320;-77
2022/07/21 06:54:22;;;;;;;;;18.50;18.50;;;;;22.47;100.00;101804.06;5118056;27;45394;-78
2022/07/21 06:56:48;;;;;;;;;21.00;17.50;;;;;22.50;100.00;101801.47;5117052;27;45459;-77
2022/07/21 06:59:14;;;;;;;;;19.25;16.25;;;;;22.58;100.00;101804.16;5116772;27;46230;-76
2022/07/21 07:01:39;;;;;;;;;19.50;17.50;;;;;22.65;100.00;101798.09;5116537;27;45235;-77
2022/07/21 07:04:43;;;;;;;;;18.00;17.75;;;;;22.71;100.00;101805.19;5117209;27;45344;-78
2022/07/21 07:07:09;;;;;;;;;21.50;19.50;;;;;22.76;100.00;101805.25;5121910;27;45630;-78
2022/07/21 07:09:35;;;;;;;;;21.00;19.00;;;;;22.78;100.00;101809.66;5121542;27;45984;-78
2022/07/21 07:12:05;;;;;;;;;19.75;16.50;;;;;22.83;100.00;101815.88;5121873;27;46039;-81
2022/07/21 07:14:32;;;;;;;;;19.50;18.00;;;;;22.86;100.00;101820.31;5142439;27;45374;-85
2022/07/21 07:16:58;;;;;;;;;20.50;17.00;;;;;22.84;100.00;101817.63;5145723;27;45372;-77
2022/07/21 07:19:24;;;;;;;;;17.50;12.75;;;;;22.84;100.00;101822.03;5123142;27;45535;-81
2022/07/21 07:21:49;;;;;;;;;17.50;16.50;;;;;22.90;100.00;101827.38;5130972;27;45290;-80
2022/07/21 07:24:15;;;;;;;;;23.00;19.25;;;;;22.93;100.00;101832.69;5122712;27;45183;-83
2022/07/21 07:26:41;;;;;;;;;21.00;19.75;;;;;22.93;100.00;101834.47;5124962;27;45248;-80
2022/07/21 07:29:07;;;;;;;;;27.25;22.50;;;;;22.95;100.00;101828.31;5122368;27;45350;-86
2022/07/21 07:31:33;;;;;;;;;14.25;13.25;;;;;22.97;100.00;101823.94;5121955;27;45265;-83
2022/07/21 07:33:58;;;;;;;;;22.00;19.75;;;;;23.04;100.00;101823.09;5121856;27;45204;-80
2022/07/21 07:36:25;;;;;;;;;20.50;18.50;;;;;23.15;100.00;101836.44;5123041;27;45252;-83
2022/07/21 07:38:52;;;;;;;;;19.50;18.50;;;;;23.16;100.00;101824.97;5126258;27;46561;-79
2022/07/21 07:41:22;;;;;;;;;21.00;19.00;;;;;23.24;100.00;101834.75;5129299;27;45729;-84
2022/07/21 07:43:49;;;;;;;;;20.25;18.25;;;;;23.29;100.00;101826.00;5128010;27;45356;-91
2022/07/21 07:46:15;;;;;;;;;26.75;20.00;;;;;23.37;100.00;101830.47;5136472;27;45441;-84
2022/07/21 07:48:41;;;;;;;;;21.00;16.50;;;;;23.44;100.00;101830.53;5142480;27;45881;-82
2022/07/21 07:51:11;;;;;;;;;17.50;16.75;;;;;23.49;100.00;101831.44;5143531;27;45400;-82
2022/07/21 07:53:37;;;;;;;;;19.75;19.00;;;;;23.52;100.00;101830.59;5125055;27;45287;-87
2022/07/21 07:56:04;;;;;;;;;18.75;16.25;;;;;23.57;100.00;101838.53;5143383;27;45243;-79
2022/07/21 07:58:30;;;;;;;;;23.25;20.00;;;;;23.59;100.00;101839.44;5145927;27;46195;-81
2022/07/21 08:00:55;;;;;;;;;21.50;21.25;;;;;23.58;100.00;101835.91;5146691;27;45787;-75
2022/07/21 08:03:22;;;;;;;;;22.50;21.50;;;;;23.56;100.00;101839.41;5147683;27;45187;-85
2022/07/21 08:05:47;;;;;;;;;23.75;20.50;;;;;23.60;100.00;101836.81;5146721;27;45292;-82
2022/07/21 08:08:14;;;;;;;;;25.50;23.50;;;;;23.60;100.00;101839.44;5144774;27;45404;-80
2022/07/21 08:10:40;;;;;;;;;27.75;23.50;;;;;23.62;100.00;101842.09;5141242;27;45772;-81
2022/07/21 08:13:08;;;;;;;;;25.00;24.25;;;;;23.63;100.00;101834.19;5142206;27;45440;-83
2022/07/21 08:15:34;;;;;;;;;24.50;21.25;;;;;23.69;100.00;101843.03;5131127;27;45660;-82
2022/07/21 08:18:01;;;;;;;;;21.50;21.25;;;;;23.73;100.00;101848.34;5120336;27;45992;-80
2022/07/21 08:20:27;;;;;;;;;27.25;22.50;;;;;23.73;100.00;101850.13;5122326;27;45496;-81
2022/07/21 08:22:52;;;;;;;;;20.50;20.50;;;;;23.70;100.00;101850.09;5120399;27;45438;-81
2022/07/21 08:25:18;;;;;;;;;22.50;21.50;;;;;23.69;100.00;101843.94;5106250;27;45537;-79
2022/07/21 08:27:44;;;;;;;;;25.75;22.75;;;;;23.69;100.00;101849.22;5123633;27;46038;-80
2022/07/21 08:30:10;;;;;;;;;28.50;22.50;;;;;23.72;100.00;101848.34;5127515;27;45322;-84
2022/07/21 08:32:36;;;;;;;;;23.00;21.75;;;;;23.79;100.00;101855.44;5121646;27;45298;-83
2022/07/21 08:35:01;;;;;;;;;26.50;24.75;;;;;23.83;100.00;101857.22;5143016;27;45308;-81
2022/07/21 08:37:27;;;;;;;;;24.00;20.75;;;;;23.87;100.00;101858.13;5141195;27;45340;-81
2022/07/21 08:39:52;;;;;;;;;27.00;23.50;;;;;23.83;100.00;101866.91;5140584;27;45345;-79
2022/07/21 08:42:18;;;;;;;;;22.00;20.50;;;;;23.79;100.00;101856.34;5140259;27;45315;-81
2022/07/21 08:44:44;;;;;;;;;22.00;19.50;;;;;23.79;100.00;101856.34;5139874;27;45241;-80
2022/07/21 08:47:09;;;;;;;;;20.75;19.50;;;;;23.86;100.00;101856.34;5139572;27;45710;-78
2022/07/21 08:49:36;;;;;;;;;26.75;25.00;;;;;23.93;100.00;101859.06;5135330;27;45336;-78
2022/07/21 08:52:02;;;;;;;;;25.25;22.50;;;;;24.05;100.00;101858.25;5121227;27;45351;-79
2022/07/21 08:54:28;;;;;;;;;27.50;23.75;;;;;24.19;100.00;101862.75;5139681;27;45428;-78
2022/07/21 08:56:54;;;;;;;;;28.50;24.00;;;;;24.20;100.00;101854.81;5140247;27;45457;-78
2022/07/21 08:59:22;;;;;;;;;24.75;23.25;;;;;24.27;100.00;101859.28;5139232;27;45805;-77
2022/07/21 09:01:48;;;;;;;;;22.75;21.00;;;;;24.38;100.00;101858.44;5138510;27;45226;-77
2022/07/21 09:04:23;;;;;;;;;22.75;22.00;;;;;24.41;100.00;101848.72;5118579;27;45363;-78
2022/07/21 09:07:00;;;;;;;;;23.50;23.25;;;;;24.39;100.00;101849.63;5118272;27;45228;-78
2022/07/21 09:09:28;;;;;;;;;25.50;22.50;;;;;24.40;99.74;101854.91;5138107;27;45346;-77
2022/07/21 09:11:54;;;;;;;;;23.00;22.00;;;;;24.34;100.00;101857.53;5122336;27;45376;-79
2022/07/21 09:14:23;;;;;;;;;25.50;21.75;;;;;24.28;100.00;101857.50;5127549;27;45523;-78
2022/07/21 09:16:50;;;;;;;;;22.00;18.25;;;;;24.29;100.00;101861.03;5137567;27;45252;-81
2022/07/21 09:19:27;;;;;;;;;23.75;20.25;;;;;24.24;100.00;101867.19;5125993;27;45429;-81
2022/07/21 09:21:57;;;;;;;;;24.50;22.00;;;;;24.23;100.00;101861.91;5129634;27;45334;-78
2022/07/21 09:24:31;;;;;;;;;25.25;21.75;;;;;24.26;100.00;101862.78;5129609;27;45220;-78
2022/07/21 09:27:16;;;;;;;;;25.00;22.75;;;;;24.32;100.00;101861.03;5123633;27;47800;-79
2022/07/21 09:29:50;;;;;;;;;21.50;20.25;;;;;24.34;100.00;101862.84;5117094;27;45370;-77
2022/07/21 09:32:37;;;;;;;;;28.75;22.50;;;;;24.35;100.00;101861.91;5117659;27;45382;-77
2022/07/21 09:35:05;;;;;;;;;23.50;20.25;;;;;24.40;100.00;101869.91;5118013;27;45250;-78
2022/07/21 09:37:32;;;;;;;;;20.25;15.75;;;;;24.48;100.00;101870.81;5117917;27;46223;-76
2022/07/21 09:40:03;;;;;;;;;23.50;21.50;;;;;24.50;100.00;101868.16;5117813;27;45832;-78
2022/07/21 09:42:32;;;;;;;;;20.50;19.75;;;;;24.57;100.00;101864.66;5117077;27;45304;-78
2022/07/21 09:45:00;;;;;;;;;25.25;19.00;;;;;24.63;99.20;101869.09;5118257;27;45557;-78
2022/07/21 09:47:28;;;;;;;;;22.25;20.50;;;;;24.65;97.14;101868.22;5118709;27;45263;-78
2022/07/21 09:49:56;;;;;;;;;18.00;16.25;;;;;24.51;96.85;101868.16;5122513;27;45271;-83
2022/07/21 09:52:29;;;;;;;;;19.00;18.00;;;;;24.42;97.84;101873.44;5121618;27;45287;-89
2022/07/21 09:55:01;;;;;;;;;21.00;20.25;;;;;24.40;98.88;101868.13;5120687;27;45325;-89
2022/07/21 09:57:28;;;;;;;;;16.50;16.50;;;;;24.42;99.14;101869.03;5120323;27;45749;-77
2022/07/21 09:59:54;;;;;;;;;21.50;20.00;;;;;24.41;99.59;101861.06;5121215;27;45223;-83
2022/07/21 10:02:25;;;;;;;;;20.75;18.50;;;;;24.38;99.95;101864.59;5102287;27;45384;-90
2022/07/21 10:04:58;;;;;;;;;24.25;21.00;;;;;24.39;99.77;101854.91;5124537;27;45239;-89
2022/07/21 10:07:26;;;;;;;;;20.00;16.00;;;;;24.38;99.36;101854.00;5122280;27;45630;-90
2022/07/21 10:09:52;;;;;;;;;21.75;20.50;;;;;24.35;99.56;101856.63;5121168;27;45231;-80
2022/07/21 10:12:18;;;;;;;;;21.25;18.50;;;;;24.37;98.31;101851.38;5117934;27;45279;-80
2022/07/21 10:14:46;;;;;;;;;15.75;15.75;;;;;24.41;96.83;101854.03;5120368;27;45502;-79
2022/07/21 10:17:13;;;;;;;;;19.50;18.00;;;;;24.40;97.75;101859.31;5118245;27;45943;-80
2022/07/21 10:19:53;;;;;;;;;19.50;19.00;;;;;24.39;98.12;101844.31;5125669;27;45334;-80
2022/07/21 10:22:30;;;;;;;;;22.00;19.25;;;;;24.42;97.69;101857.53;5127299;27;45245;-78
2022/07/21 10:24:57;;;;;;;;;19.75;18.75;;;;;24.40;98.95;101849.59;5120075;27;45310;-79
2022/07/21 10:27:23;;;;;;;;;18.25;17.50;;;;;24.38;97.94;101856.66;5117841;27;45307;-78
2022/07/21 10:29:49;;;;;;;;;21.75;20.25;;;;;24.33;97.94;101858.41;5116864;27;45340;-80
2022/07/21 10:32:17;;;;;;;;;17.75;16.75;;;;;24.17;100.00;101852.16;5117182;27;45408;-80
2022/07/21 10:34:43;;;;;;;;;24.25;22.00;;;;;24.16;100.00;101857.44;5118483;27;45267;-81
2022/07/21 10:37:09;;;;;;;;;17.00;16.25;;;;;24.14;100.00;101854.78;5122546;27;46272;-83
2022/07/21 10:39:36;;;;;;;;;24.50;18.25;;;;;24.14;100.00;101854.78;5120509;27;45278;-86
2022/07/21 10:42:15;;;;;;;;;20.25;19.00;;;;;24.30;100.00;101855.75;5119551;27;45324;-78
2022/07/21 10:44:43;;;;;;;;;17.75;16.50;;;;;24.51;98.10;101862.88;5117133;27;45421;-78
2022/07/21 10:47:12;;;;;;;;;21.00;20.25;;;;;24.68;97.23;101857.66;5116806;27;45339;-78
2022/07/21 10:49:56;;;;;;;;;17.50;14.50;;;;;24.78;95.45;101855.94;5116574;27;45444;-78
2022/07/21 10:52:34;;;;;;;;;17.50;15.50;;;;;24.90;95.57;101852.41;5098151;27;45464;-77
2022/07/21 10:55:29;;;;;;;;;18.00;16.25;;;;;24.99;93.10;101868.34;5117120;27;45341;-77
2022/07/21 10:58:23;;;;;;;;;19.50;18.50;;;;;24.99;93.74;101848.91;5116541;27;46271;-77
2022/07/21 11:00:51;;;;;;;;;17.50;17.25;;;;;25.11;92.71;101864.81;5116329;27;45326;-86
2022/07/21 11:03:38;;;;;;;;;17.00;15.50;;;;;25.14;88.81;101862.19;5098357;27;45368;-79
2022/07/21 11:06:09;;;;;;;;;16.50;14.25;;;;;25.19;89.76;101852.44;5117467;27;45355;-78
2022/07/21 11:08:50;;;;;;;;;14.75;14.00;;;;;25.34;88.55;101854.22;5116942;27;45328;-78
2022/07/21 11:11:26;;;;;;;;;16.50;14.75;;;;;25.56;86.75;101861.31;5116516;27;45853;-78